sensor_id;sensor_type;location;lat;lon;timestamp;P1;durP1;ratioP1;P2;durP2;ratioP2
10174;SDS011;18221;38.704;0.152;2023-06-26T00:01:48;5.93;;;5.33;;
10174;SDS011;18221;38.704;0.152;2023-06-26T00:04:16;5.03;;;4.63;;
10174;SDS011;18221;38.704;0.152;2023-06-26T00:06:45;5.73;;;5.10;;
10174;SDS011;18221;38.704;0.152;2023-06-26T00:09:13;6.57;;;4.97;;
10174;SDS011;18221;38.704;0.152;2023-06-26T00:11:41;6.00;;;5.07;;
10174;SDS011;18221;38.704;0.152;2023-06-26T00:14:09;7.00;;;5.30;;
10174;SDS011;18221;38.704;0.152;2023-06-26T00:16:37;6.13;;;5.20;;
10174;SDS011;18221;38.704;0.152;2023-06-26T00:19:07;6.63;;;5.07;;
10174;SDS011;18221;38.704;0.152;2023-06-26T00:21:35;5.80;;;5.20;;
10174;SDS011;18221;38.704;0.152;2023-06-26T00:24:05;5.60;;;5.10;;
10174;SDS011;18221;38.704;0.152;2023-06-26T00:26:33;5.70;;;5.10;;
10174;SDS011;18221;38.704;0.152;2023-06-26T00:29:02;6.57;;;5.30;;
10174;SDS011;18221;38.704;0.152;2023-06-26T00:31:30;7.80;;;5.23;;
10174;SDS011;18221;38.704;0.152;2023-06-26T00:33:58;6.70;;;4.93;;
10174;SDS011;18221;38.704;0.152;2023-06-26T00:36:26;5.77;;;4.93;;
10174;SDS011;18221;38.704;0.152;2023-06-26T00:38:56;5.90;;;5.30;;
10174;SDS011;18221;38.704;0.152;2023-06-26T00:41:26;6.13;;;5.20;;
10174;SDS011;18221;38.704;0.152;2023-06-26T00:43:53;5.33;;;4.80;;
10174;SDS011;18221;38.704;0.152;2023-06-26T00:46:21;6.57;;;5.17;;
10174;SDS011;18221;38.704;0.152;2023-06-26T00:48:50;6.17;;;5.43;;
10174;SDS011;18221;38.704;0.152;2023-06-26T00:51:19;5.80;;;5.20;;
10174;SDS011;18221;38.704;0.152;2023-06-26T00:53:48;5.60;;;5.00;;
10174;SDS011;18221;38.704;0.152;2023-06-26T00:56:17;6.07;;;5.20;;
10174;SDS011;18221;38.704;0.152;2023-06-26T00:58:48;6.07;;;5.40;;
10174;SDS011;18221;38.704;0.152;2023-06-26T01:01:17;6.63;;;5.30;;
10174;SDS011;18221;38.704;0.152;2023-06-26T01:03:47;6.53;;;5.10;;
10174;SDS011;18221;38.704;0.152;2023-06-26T01:06:17;5.67;;;5.07;;
10174;SDS011;18221;38.704;0.152;2023-06-26T01:08:48;6.40;;;5.63;;
10174;SDS011;18221;38.704;0.152;2023-06-26T01:11:18;6.00;;;5.40;;
10174;SDS011;18221;38.704;0.152;2023-06-26T01:13:48;5.60;;;5.00;;
10174;SDS011;18221;38.704;0.152;2023-06-26T01:16:19;6.60;;;5.20;;
10174;SDS011;18221;38.704;0.152;2023-06-26T01:18:50;6.33;;;5.07;;
10174;SDS011;18221;38.704;0.152;2023-06-26T01:21:18;6.33;;;5.73;;
10174;SDS011;18221;38.704;0.152;2023-06-26T01:23:56;6.40;;;5.57;;
10174;SDS011;18221;38.704;0.152;2023-06-26T01:26:37;8.23;;;5.20;;
10174;SDS011;18221;38.704;0.152;2023-06-26T01:29:10;8.43;;;5.03;;
10174;SDS011;18221;38.704;0.152;2023-06-26T01:31:41;7.30;;;5.43;;
10174;SDS011;18221;38.704;0.152;2023-06-26T01:34:11;6.00;;;5.40;;
10174;SDS011;18221;38.704;0.152;2023-06-26T01:36:40;6.33;;;5.43;;
10174;SDS011;18221;38.704;0.152;2023-06-26T01:39:09;6.60;;;5.90;;
10174;SDS011;18221;38.704;0.152;2023-06-26T01:41:38;5.37;;;4.83;;
10174;SDS011;18221;38.704;0.152;2023-06-26T01:44:10;6.47;;;5.30;;
10174;SDS011;18221;38.704;0.152;2023-06-26T01:46:53;6.43;;;5.07;;
10174;SDS011;18221;38.704;0.152;2023-06-26T01:49:38;6.00;;;5.40;;
10174;SDS011;18221;38.704;0.152;2023-06-26T01:52:17;7.40;;;5.97;;
10174;SDS011;18221;38.704;0.152;2023-06-26T01:54:57;6.10;;;5.50;;
10174;SDS011;18221;38.704;0.152;2023-06-26T01:57:33;5.57;;;5.03;;
10174;SDS011;18221;38.704;0.152;2023-06-26T02:00:05;6.87;;;4.80;;
10174;SDS011;18221;38.704;0.152;2023-06-26T02:02:36;5.70;;;5.20;;
10174;SDS011;18221;38.704;0.152;2023-06-26T02:05:04;6.40;;;5.70;;
10174;SDS011;18221;38.704;0.152;2023-06-26T02:07:33;6.83;;;5.53;;
10174;SDS011;18221;38.704;0.152;2023-06-26T02:10:01;5.40;;;4.90;;
10174;SDS011;18221;38.704;0.152;2023-06-26T02:12:29;6.80;;;5.40;;
10174;SDS011;18221;38.704;0.152;2023-06-26T02:14:59;7.27;;;5.47;;
10174;SDS011;18221;38.704;0.152;2023-06-26T02:17:27;6.97;;;5.10;;
10174;SDS011;18221;38.704;0.152;2023-06-26T02:19:55;6.33;;;5.47;;
10174;SDS011;18221;38.704;0.152;2023-06-26T02:22:23;6.63;;;5.53;;
10174;SDS011;18221;38.704;0.152;2023-06-26T02:24:51;5.83;;;5.20;;
10174;SDS011;18221;38.704;0.152;2023-06-26T02:27:19;7.43;;;5.33;;
10174;SDS011;18221;38.704;0.152;2023-06-26T02:29:47;7.40;;;5.37;;
10174;SDS011;18221;38.704;0.152;2023-06-26T02:32:17;8.33;;;5.67;;
10174;SDS011;18221;38.704;0.152;2023-06-26T02:34:45;8.67;;;5.73;;
10174;SDS011;18221;38.704;0.152;2023-06-26T02:37:13;7.90;;;5.70;;
10174;SDS011;18221;38.704;0.152;2023-06-26T02:39:41;6.63;;;5.20;;
10174;SDS011;18221;38.704;0.152;2023-06-26T02:42:09;5.83;;;5.20;;
10174;SDS011;18221;38.704;0.152;2023-06-26T02:44:37;6.13;;;5.23;;
10174;SDS011;18221;38.704;0.152;2023-06-26T02:47:06;5.53;;;5.03;;
10174;SDS011;18221;38.704;0.152;2023-06-26T02:49:35;5.93;;;5.33;;
10174;SDS011;18221;38.704;0.152;2023-06-26T02:52:03;5.63;;;5.00;;
10174;SDS011;18221;38.704;0.152;2023-06-26T02:54:32;6.17;;;5.57;;
10174;SDS011;18221;38.704;0.152;2023-06-26T02:57:00;6.03;;;5.47;;
10174;SDS011;18221;38.704;0.152;2023-06-26T02:59:28;6.67;;;5.50;;
10174;SDS011;18221;38.704;0.152;2023-06-26T03:01:56;8.03;;;5.87;;
10174;SDS011;18221;38.704;0.152;2023-06-26T03:04:24;7.77;;;5.90;;
10174;SDS011;18221;38.704;0.152;2023-06-26T03:06:53;6.83;;;5.73;;
10174;SDS011;18221;38.704;0.152;2023-06-26T03:09:21;6.70;;;5.70;;
10174;SDS011;18221;38.704;0.152;2023-06-26T03:11:49;6.13;;;5.53;;
10174;SDS011;18221;38.704;0.152;2023-06-26T03:14:18;6.40;;;5.33;;
10174;SDS011;18221;38.704;0.152;2023-06-26T03:16:46;6.90;;;6.20;;
10174;SDS011;18221;38.704;0.152;2023-06-26T03:19:14;8.87;;;5.97;;
10174;SDS011;18221;38.704;0.152;2023-06-26T03:21:42;6.43;;;5.57;;
10174;SDS011;18221;38.704;0.152;2023-06-26T03:24:12;8.03;;;5.93;;
10174;SDS011;18221;38.704;0.152;2023-06-26T03:26:40;6.13;;;5.53;;
10174;SDS011;18221;38.704;0.152;2023-06-26T03:29:08;7.10;;;6.00;;
10174;SDS011;18221;38.704;0.152;2023-06-26T03:31:36;8.80;;;6.00;;
10174;SDS011;18221;38.704;0.152;2023-06-26T03:34:04;8.00;;;6.00;;
10174;SDS011;18221;38.704;0.152;2023-06-26T03:36:32;7.70;;;5.73;;
10174;SDS011;18221;38.704;0.152;2023-06-26T03:39:00;7.73;;;5.70;;
10174;SDS011;18221;38.704;0.152;2023-06-26T03:41:30;8.00;;;6.10;;
10174;SDS011;18221;38.704;0.152;2023-06-26T03:43:58;6.53;;;5.20;;
10174;SDS011;18221;38.704;0.152;2023-06-26T03:46:27;6.40;;;5.33;;
10174;SDS011;18221;38.704;0.152;2023-06-26T03:48:55;7.53;;;5.37;;
10174;SDS011;18221;38.704;0.152;2023-06-26T03:51:23;7.77;;;5.43;;
10174;SDS011;18221;38.704;0.152;2023-06-26T03:53:51;8.30;;;6.33;;
10174;SDS011;18221;38.704;0.152;2023-06-26T03:56:19;9.80;;;6.07;;
10174;SDS011;18221;38.704;0.152;2023-06-26T03:58:49;7.87;;;5.67;;
10174;SDS011;18221;38.704;0.152;2023-06-26T04:01:17;6.90;;;6.13;;
10174;SDS011;18221;38.704;0.152;2023-06-26T04:03:49;7.27;;;6.30;;
10174;SDS011;18221;38.704;0.152;2023-06-26T04:06:17;7.87;;;6.00;;
10174;SDS011;18221;38.704;0.152;2023-06-26T04:08:45;7.23;;;6.20;;
10174;SDS011;18221;38.704;0.152;2023-06-26T04:11:14;7.53;;;6.00;;
10174;SDS011;18221;38.704;0.152;2023-06-26T04:13:42;7.73;;;6.37;;
10174;SDS011;18221;38.704;0.152;2023-06-26T04:16:12;8.87;;;7.30;;
10174;SDS011;18221;38.704;0.152;2023-06-26T04:18:41;10.43;;;7.63;;
10174;SDS011;18221;38.704;0.152;2023-06-26T04:21:10;9.07;;;7.87;;
10174;SDS011;18221;38.704;0.152;2023-06-26T04:23:39;10.33;;;7.80;;
10174;SDS011;18221;38.704;0.152;2023-06-26T04:26:08;9.90;;;8.17;;
10174;SDS011;18221;38.704;0.152;2023-06-26T04:28:38;8.87;;;7.57;;
10174;SDS011;18221;38.704;0.152;2023-06-26T04:31:06;9.60;;;7.67;;
10174;SDS011;18221;38.704;0.152;2023-06-26T04:33:35;9.27;;;7.93;;
10174;SDS011;18221;38.704;0.152;2023-06-26T04:36:04;7.83;;;6.93;;
10174;SDS011;18221;38.704;0.152;2023-06-26T04:38:32;8.47;;;6.70;;
10174;SDS011;18221;38.704;0.152;2023-06-26T04:41:01;9.00;;;6.30;;
10174;SDS011;18221;38.704;0.152;2023-06-26T04:43:29;7.67;;;6.53;;
10174;SDS011;18221;38.704;0.152;2023-06-26T04:45:57;7.10;;;5.90;;
10174;SDS011;18221;38.704;0.152;2023-06-26T04:48:25;7.67;;;6.30;;
10174;SDS011;18221;38.704;0.152;2023-06-26T04:50:57;6.93;;;6.20;;
10174;SDS011;18221;38.704;0.152;2023-06-26T04:53:26;6.37;;;5.70;;
10174;SDS011;18221;38.704;0.152;2023-06-26T04:55:54;9.70;;;6.83;;
10174;SDS011;18221;38.704;0.152;2023-06-26T04:58:22;9.93;;;7.37;;
10174;SDS011;18221;38.704;0.152;2023-06-26T05:00:50;8.67;;;6.60;;
10174;SDS011;18221;38.704;0.152;2023-06-26T05:03:18;7.10;;;6.07;;
10174;SDS011;18221;38.704;0.152;2023-06-26T05:05:47;7.73;;;6.53;;
10174;SDS011;18221;38.704;0.152;2023-06-26T05:08:17;8.40;;;6.40;;
10174;SDS011;18221;38.704;0.152;2023-06-26T05:10:49;7.87;;;7.10;;
10174;SDS011;18221;38.704;0.152;2023-06-26T05:13:18;9.90;;;7.37;;
10174;SDS011;18221;38.704;0.152;2023-06-26T05:15:46;8.97;;;7.63;;
10174;SDS011;18221;38.704;0.152;2023-06-26T05:18:16;8.13;;;7.33;;
10174;SDS011;18221;38.704;0.152;2023-06-26T05:20:44;8.13;;;7.27;;
10174;SDS011;18221;38.704;0.152;2023-06-26T05:23:13;10.83;;;7.73;;
10174;SDS011;18221;38.704;0.152;2023-06-26T05:25:45;8.53;;;7.33;;
10174;SDS011;18221;38.704;0.152;2023-06-26T05:28:15;8.33;;;7.43;;
10174;SDS011;18221;38.704;0.152;2023-06-26T05:30:44;10.70;;;7.50;;
10174;SDS011;18221;38.704;0.152;2023-06-26T05:33:13;9.07;;;7.70;;
10174;SDS011;18221;38.704;0.152;2023-06-26T05:35:45;8.93;;;7.43;;
10174;SDS011;18221;38.704;0.152;2023-06-26T05:38:15;10.63;;;8.30;;
10174;SDS011;18221;38.704;0.152;2023-06-26T05:40:45;9.00;;;7.20;;
10174;SDS011;18221;38.704;0.152;2023-06-26T05:43:14;7.97;;;7.17;;
10174;SDS011;18221;38.704;0.152;2023-06-26T05:45:46;9.30;;;7.83;;
10174;SDS011;18221;38.704;0.152;2023-06-26T05:48:15;10.43;;;7.37;;
10174;SDS011;18221;38.704;0.152;2023-06-26T05:50:43;8.13;;;7.33;;
10174;SDS011;18221;38.704;0.152;2023-06-26T05:53:12;7.70;;;6.93;;
10174;SDS011;18221;38.704;0.152;2023-06-26T05:55:43;10.00;;;7.37;;
10174;SDS011;18221;38.704;0.152;2023-06-26T05:58:11;7.00;;;6.30;;
10174;SDS011;18221;38.704;0.152;2023-06-26T06:00:41;8.53;;;6.40;;
10174;SDS011;18221;38.704;0.152;2023-06-26T06:03:10;7.67;;;6.03;;
10174;SDS011;18221;38.704;0.152;2023-06-26T06:05:38;8.80;;;6.07;;
10174;SDS011;18221;38.704;0.152;2023-06-26T06:08:05;6.30;;;5.70;;
10174;SDS011;18221;38.704;0.152;2023-06-26T06:10:35;7.30;;;6.10;;
10174;SDS011;18221;38.704;0.152;2023-06-26T06:13:04;8.63;;;6.73;;
10174;SDS011;18221;38.704;0.152;2023-06-26T06:15:32;6.93;;;6.20;;
10174;SDS011;18221;38.704;0.152;2023-06-26T06:18:01;9.87;;;6.80;;
10174;SDS011;18221;38.704;0.152;2023-06-26T06:20:29;7.97;;;6.70;;
10174;SDS011;18221;38.704;0.152;2023-06-26T06:22:56;7.73;;;6.40;;
10174;SDS011;18221;38.704;0.152;2023-06-26T06:25:24;7.83;;;5.67;;
10174;SDS011;18221;38.704;0.152;2023-06-26T06:27:52;7.03;;;6.10;;
10174;SDS011;18221;38.704;0.152;2023-06-26T06:30:22;9.30;;;6.23;;
10174;SDS011;18221;38.704;0.152;2023-06-26T06:32:50;7.00;;;5.90;;
10174;SDS011;18221;38.704;0.152;2023-06-26T06:35:18;7.40;;;5.93;;
10174;SDS011;18221;38.704;0.152;2023-06-26T06:37:46;7.30;;;5.67;;
10174;SDS011;18221;38.704;0.152;2023-06-26T06:40:14;6.93;;;5.90;;
10174;SDS011;18221;38.704;0.152;2023-06-26T06:42:47;7.33;;;5.80;;
10174;SDS011;18221;38.704;0.152;2023-06-26T06:45:15;6.17;;;5.53;;
10174;SDS011;18221;38.704;0.152;2023-06-26T06:47:44;7.27;;;5.60;;
10174;SDS011;18221;38.704;0.152;2023-06-26T06:50:12;5.80;;;5.30;;
10174;SDS011;18221;38.704;0.152;2023-06-26T06:52:42;6.77;;;5.60;;
10174;SDS011;18221;38.704;0.152;2023-06-26T06:55:10;6.63;;;5.60;;
10174;SDS011;18221;38.704;0.152;2023-06-26T06:57:38;7.90;;;5.87;;
10174;SDS011;18221;38.704;0.152;2023-06-26T07:00:07;8.70;;;6.30;;
10174;SDS011;18221;38.704;0.152;2023-06-26T07:02:38;6.60;;;5.57;;
10174;SDS011;18221;38.704;0.152;2023-06-26T07:05:08;7.73;;;5.47;;
10174;SDS011;18221;38.704;0.152;2023-06-26T07:07:37;7.07;;;5.87;;
10174;SDS011;18221;38.704;0.152;2023-06-26T07:10:06;6.97;;;5.37;;
10174;SDS011;18221;38.704;0.152;2023-06-26T07:12:37;6.47;;;5.63;;
10174;SDS011;18221;38.704;0.152;2023-06-26T07:15:05;6.47;;;5.43;;
10174;SDS011;18221;38.704;0.152;2023-06-26T07:17:34;8.30;;;5.70;;
10174;SDS011;18221;38.704;0.152;2023-06-26T07:20:03;8.57;;;5.87;;
10174;SDS011;18221;38.704;0.152;2023-06-26T07:22:35;7.13;;;5.57;;
10174;SDS011;18221;38.704;0.152;2023-06-26T07:25:04;6.00;;;5.40;;
10174;SDS011;18221;38.704;0.152;2023-06-26T07:27:34;9.17;;;5.67;;
10174;SDS011;18221;38.704;0.152;2023-06-26T07:30:02;6.60;;;5.90;;
10174;SDS011;18221;38.704;0.152;2023-06-26T07:32:31;6.27;;;5.20;;
10174;SDS011;18221;38.704;0.152;2023-06-26T07:34:59;7.47;;;5.50;;
10174;SDS011;18221;38.704;0.152;2023-06-26T07:37:27;6.93;;;5.43;;
10174;SDS011;18221;38.704;0.152;2023-06-26T07:39:56;9.32;;;5.70;;
10174;SDS011;18221;38.704;0.152;2023-06-26T07:42:24;8.57;;;5.78;;
10174;SDS011;18221;38.704;0.152;2023-06-26T07:44:52;8.90;;;5.60;;
10174;SDS011;18221;38.704;0.152;2023-06-26T07:47:20;9.48;;;5.50;;
10174;SDS011;18221;38.704;0.152;2023-06-26T07:49:48;13.20;;;5.72;;
10174;SDS011;18221;38.704;0.152;2023-06-26T07:52:16;8.13;;;5.35;;
10174;SDS011;18221;38.704;0.152;2023-06-26T07:54:45;9.70;;;5.93;;
10174;SDS011;18221;38.704;0.152;2023-06-26T07:57:15;12.68;;;6.43;;
10174;SDS011;18221;38.704;0.152;2023-06-26T07:59:43;10.25;;;6.25;;
10174;SDS011;18221;38.704;0.152;2023-06-26T08:02:10;16.17;;;6.40;;
10174;SDS011;18221;38.704;0.152;2023-06-26T08:04:38;12.98;;;5.97;;
10174;SDS011;18221;38.704;0.152;2023-06-26T08:07:06;9.93;;;5.50;;
10174;SDS011;18221;38.704;0.152;2023-06-26T08:09:34;9.50;;;5.80;;
10174;SDS011;18221;38.704;0.152;2023-06-26T08:12:02;9.55;;;5.65;;
10174;SDS011;18221;38.704;0.152;2023-06-26T08:14:32;9.60;;;5.38;;
10174;SDS011;18221;38.704;0.152;2023-06-26T08:17:00;7.50;;;5.55;;
10174;SDS011;18221;38.704;0.152;2023-06-26T08:19:28;9.95;;;5.20;;
10174;SDS011;18221;38.704;0.152;2023-06-26T08:21:56;6.45;;;5.13;;
10174;SDS011;18221;38.704;0.152;2023-06-26T08:24:24;8.07;;;4.75;;
10174;SDS011;18221;38.704;0.152;2023-06-26T08:26:52;7.72;;;5.20;;
10174;SDS011;18221;38.704;0.152;2023-06-26T08:29:19;11.02;;;4.90;;
10174;SDS011;18221;38.704;0.152;2023-06-26T08:31:49;5.60;;;4.20;;
10174;SDS011;18221;38.704;0.152;2023-06-26T08:34:17;11.07;;;5.32;;
10174;SDS011;18221;38.704;0.152;2023-06-26T08:36:44;7.78;;;4.90;;
10174;SDS011;18221;38.704;0.152;2023-06-26T08:39:12;7.50;;;4.88;;
10174;SDS011;18221;38.704;0.152;2023-06-26T08:41:40;8.82;;;4.57;;
10174;SDS011;18221;38.704;0.152;2023-06-26T08:44:08;6.43;;;4.93;;
10174;SDS011;18221;38.704;0.152;2023-06-26T08:46:37;8.30;;;4.72;;
10174;SDS011;18221;38.704;0.152;2023-06-26T08:49:17;6.03;;;4.97;;
10174;SDS011;18221;38.704;0.152;2023-06-26T08:51:54;6.53;;;4.70;;
10174;SDS011;18221;38.704;0.152;2023-06-26T08:54:33;6.93;;;4.90;;
10174;SDS011;18221;38.704;0.152;2023-06-26T08:57:15;6.65;;;4.32;;
10174;SDS011;18221;38.704;0.152;2023-06-26T08:59:47;7.05;;;4.45;;
10174;SDS011;18221;38.704;0.152;2023-06-26T09:02:16;6.10;;;4.70;;
10174;SDS011;18221;38.704;0.152;2023-06-26T09:04:47;6.00;;;4.20;;
10174;SDS011;18221;38.704;0.152;2023-06-26T09:07:16;7.03;;;4.53;;
10174;SDS011;18221;38.704;0.152;2023-06-26T09:09:44;6.70;;;5.05;;
10174;SDS011;18221;38.704;0.152;2023-06-26T09:12:12;6.13;;;4.57;;
10174;SDS011;18221;38.704;0.152;2023-06-26T09:14:41;5.80;;;4.78;;
10174;SDS011;18221;38.704;0.152;2023-06-26T09:17:09;5.50;;;4.72;;
10174;SDS011;18221;38.704;0.152;2023-06-26T09:19:39;5.07;;;4.50;;
10174;SDS011;18221;38.704;0.152;2023-06-26T09:22:12;6.60;;;5.07;;
10174;SDS011;18221;38.704;0.152;2023-06-26T09:24:42;7.80;;;5.05;;
10174;SDS011;18221;38.704;0.152;2023-06-26T09:27:12;7.30;;;5.10;;
10174;SDS011;18221;38.704;0.152;2023-06-26T09:29:40;9.35;;;4.68;;
10174;SDS011;18221;38.704;0.152;2023-06-26T09:32:08;5.82;;;4.10;;
10174;SDS011;18221;38.704;0.152;2023-06-26T09:34:36;6.90;;;4.95;;
10174;SDS011;18221;38.704;0.152;2023-06-26T09:37:12;7.20;;;5.07;;
10174;SDS011;18221;38.704;0.152;2023-06-26T09:39:40;5.80;;;4.60;;
10174;SDS011;18221;38.704;0.152;2023-06-26T09:42:08;8.02;;;4.63;;
10174;SDS011;18221;38.704;0.152;2023-06-26T09:44:36;6.82;;;4.68;;
10174;SDS011;18221;38.704;0.152;2023-06-26T09:47:10;7.20;;;4.80;;
10174;SDS011;18221;38.704;0.152;2023-06-26T09:49:41;6.13;;;4.85;;
10174;SDS011;18221;38.704;0.152;2023-06-26T09:52:09;5.05;;;4.53;;
10174;SDS011;18221;38.704;0.152;2023-06-26T09:54:44;5.82;;;4.72;;
10174;SDS011;18221;38.704;0.152;2023-06-26T09:57:13;5.38;;;4.30;;
10174;SDS011;18221;38.704;0.152;2023-06-26T09:59:44;5.63;;;4.72;;
10174;SDS011;18221;38.704;0.152;2023-06-26T10:02:12;5.40;;;4.90;;
10174;SDS011;18221;38.704;0.152;2023-06-26T10:04:40;5.88;;;4.45;;
10174;SDS011;18221;38.704;0.152;2023-06-26T10:07:08;6.22;;;5.05;;
10174;SDS011;18221;38.704;0.152;2023-06-26T10:09:40;7.78;;;4.88;;
10174;SDS011;18221;38.704;0.152;2023-06-26T10:12:16;5.57;;;4.95;;
10174;SDS011;18221;38.704;0.152;2023-06-26T10:14:50;4.80;;;4.40;;
10174;SDS011;18221;38.704;0.152;2023-06-26T10:17:22;5.65;;;4.20;;
10174;SDS011;18221;38.704;0.152;2023-06-26T10:19:58;6.43;;;4.75;;
10174;SDS011;18221;38.704;0.152;2023-06-26T10:22:44;6.63;;;4.50;;
10174;SDS011;18221;38.704;0.152;2023-06-26T10:25:16;5.82;;;5.00;;
10174;SDS011;18221;38.704;0.152;2023-06-26T10:27:47;5.97;;;5.07;;
10174;SDS011;18221;38.704;0.152;2023-06-26T10:30:22;7.10;;;4.70;;
10174;SDS011;18221;38.704;0.152;2023-06-26T10:32:57;7.00;;;5.30;;
10174;SDS011;18221;38.704;0.152;2023-06-26T10:35:27;7.70;;;5.32;;
10174;SDS011;18221;38.704;0.152;2023-06-26T10:38:00;9.20;;;5.13;;
10174;SDS011;18221;38.704;0.152;2023-06-26T10:40:41;6.05;;;4.72;;
10174;SDS011;18221;38.704;0.152;2023-06-26T10:43:11;8.68;;;5.10;;
10174;SDS011;18221;38.704;0.152;2023-06-26T10:45:44;7.18;;;5.28;;
10174;SDS011;18221;38.704;0.152;2023-06-26T10:48:17;6.43;;;5.05;;
10174;SDS011;18221;38.704;0.152;2023-06-26T10:50:47;5.40;;;4.85;;
10174;SDS011;18221;38.704;0.152;2023-06-26T10:53:16;6.60;;;4.60;;
10174;SDS011;18221;38.704;0.152;2023-06-26T10:55:56;5.00;;;4.32;;
10174;SDS011;18221;38.704;0.152;2023-06-26T10:58:28;4.97;;;4.30;;
10174;SDS011;18221;38.704;0.152;2023-06-26T11:01:19;6.10;;;4.28;;
10174;SDS011;18221;38.704;0.152;2023-06-26T11:03:59;7.13;;;4.30;;
10174;SDS011;18221;38.704;0.152;2023-06-26T11:06:31;5.60;;;4.30;;
10174;SDS011;18221;38.704;0.152;2023-06-26T11:09:06;5.80;;;4.13;;
10174;SDS011;18221;38.704;0.152;2023-06-26T11:11:58;5.20;;;4.43;;
10174;SDS011;18221;38.704;0.152;2023-06-26T11:14:31;5.45;;;4.30;;
10174;SDS011;18221;38.704;0.152;2023-06-26T11:17:02;6.72;;;4.03;;
10174;SDS011;18221;38.704;0.152;2023-06-26T11:19:31;6.95;;;4.70;;
10174;SDS011;18221;38.704;0.152;2023-06-26T11:21:59;4.88;;;4.22;;
10174;SDS011;18221;38.704;0.152;2023-06-26T11:24:31;6.07;;;4.25;;
10174;SDS011;18221;38.704;0.152;2023-06-26T11:27:02;6.00;;;4.13;;
10174;SDS011;18221;38.704;0.152;2023-06-26T11:29:31;4.90;;;4.07;;
10174;SDS011;18221;38.704;0.152;2023-06-26T11:32:00;4.82;;;4.32;;
10174;SDS011;18221;38.704;0.152;2023-06-26T11:34:32;4.82;;;4.20;;
10174;SDS011;18221;38.704;0.152;2023-06-26T11:37:03;5.97;;;4.10;;
10174;SDS011;18221;38.704;0.152;2023-06-26T11:39:32;5.00;;;3.65;;
10174;SDS011;18221;38.704;0.152;2023-06-26T11:42:00;4.80;;;3.85;;
10174;SDS011;18221;38.704;0.152;2023-06-26T11:44:31;5.55;;;3.63;;
10174;SDS011;18221;38.704;0.152;2023-06-26T11:47:06;5.53;;;3.90;;
10174;SDS011;18221;38.704;0.152;2023-06-26T11:49:34;4.72;;;3.92;;
10174;SDS011;18221;38.704;0.152;2023-06-26T11:52:04;5.47;;;4.07;;
10174;SDS011;18221;38.704;0.152;2023-06-26T11:54:33;4.55;;;4.05;;
10174;SDS011;18221;38.704;0.152;2023-06-26T11:57:02;5.25;;;4.10;;
10174;SDS011;18221;38.704;0.152;2023-06-26T11:59:34;6.60;;;4.10;;
10174;SDS011;18221;38.704;0.152;2023-06-26T12:02:05;6.55;;;3.88;;
10174;SDS011;18221;38.704;0.152;2023-06-26T12:04:34;4.80;;;4.30;;
10174;SDS011;18221;38.704;0.152;2023-06-26T12:07:05;7.35;;;4.40;;
10174;SDS011;18221;38.704;0.152;2023-06-26T12:09:38;4.43;;;4.03;;
10174;SDS011;18221;38.704;0.152;2023-06-26T12:12:10;4.90;;;3.78;;
10174;SDS011;18221;38.704;0.152;2023-06-26T12:14:40;5.20;;;3.67;;
10174;SDS011;18221;38.704;0.152;2023-06-26T12:17:09;7.07;;;4.53;;
10174;SDS011;18221;38.704;0.152;2023-06-26T12:19:39;5.57;;;4.25;;
10174;SDS011;18221;38.704;0.152;2023-06-26T12:22:13;7.05;;;4.25;;
10174;SDS011;18221;38.704;0.152;2023-06-26T12:24:41;4.70;;;4.05;;
10174;SDS011;18221;38.704;0.152;2023-06-26T12:27:14;6.63;;;4.03;;
10174;SDS011;18221;38.704;0.152;2023-06-26T12:29:46;4.40;;;3.58;;
10174;SDS011;18221;38.704;0.152;2023-06-26T12:32:19;4.97;;;3.78;;
10174;SDS011;18221;38.704;0.152;2023-06-26T12:34:50;4.85;;;3.60;;
10174;SDS011;18221;38.704;0.152;2023-06-26T12:37:18;5.55;;;4.03;;
10174;SDS011;18221;38.704;0.152;2023-06-26T12:39:47;5.95;;;3.90;;
10174;SDS011;18221;38.704;0.152;2023-06-26T12:42:19;6.68;;;4.22;;
10174;SDS011;18221;38.704;0.152;2023-06-26T12:44:50;5.88;;;4.43;;
10174;SDS011;18221;38.704;0.152;2023-06-26T12:47:23;5.53;;;3.70;;
10174;SDS011;18221;38.704;0.152;2023-06-26T12:49:52;6.35;;;4.10;;
10174;SDS011;18221;38.704;0.152;2023-06-26T12:52:22;5.85;;;4.15;;
10174;SDS011;18221;38.704;0.152;2023-06-26T12:54:52;4.70;;;3.88;;
10174;SDS011;18221;38.704;0.152;2023-06-26T12:57:23;5.03;;;4.00;;
10174;SDS011;18221;38.704;0.152;2023-06-26T12:59:52;7.20;;;3.95;;
10174;SDS011;18221;38.704;0.152;2023-06-26T13:02:19;4.43;;;4.03;;
10174;SDS011;18221;38.704;0.152;2023-06-26T13:04:47;6.10;;;4.30;;
10174;SDS011;18221;38.704;0.152;2023-06-26T13:07:15;5.55;;;3.83;;
10174;SDS011;18221;38.704;0.152;2023-06-26T13:09:43;5.15;;;4.00;;
10174;SDS011;18221;38.704;0.152;2023-06-26T13:12:13;5.10;;;4.05;;
10174;SDS011;18221;38.704;0.152;2023-06-26T13:14:42;4.00;;;3.60;;
10174;SDS011;18221;38.704;0.152;2023-06-26T13:17:11;5.13;;;3.90;;
10174;SDS011;18221;38.704;0.152;2023-06-26T13:19:39;5.13;;;3.88;;
10174;SDS011;18221;38.704;0.152;2023-06-26T13:22:07;5.32;;;4.18;;
10174;SDS011;18221;38.704;0.152;2023-06-26T13:24:35;4.38;;;3.78;;
10174;SDS011;18221;38.704;0.152;2023-06-26T13:27:03;5.18;;;4.00;;
10174;SDS011;18221;38.704;0.152;2023-06-26T13:29:31;5.20;;;3.90;;
10174;SDS011;18221;38.704;0.152;2023-06-26T13:32:00;6.13;;;3.97;;
10174;SDS011;18221;38.704;0.152;2023-06-26T13:34:29;4.43;;;3.85;;
10174;SDS011;18221;38.704;0.152;2023-06-26T13:36:57;5.65;;;3.95;;
10174;SDS011;18221;38.704;0.152;2023-06-26T13:39:25;4.88;;;4.03;;
10174;SDS011;18221;38.704;0.152;2023-06-26T13:41:55;4.47;;;4.05;;
10174;SDS011;18221;38.704;0.152;2023-06-26T13:44:22;5.38;;;4.10;;
10174;SDS011;18221;38.704;0.152;2023-06-26T13:46:50;4.72;;;3.80;;
10174;SDS011;18221;38.704;0.152;2023-06-26T13:49:20;7.38;;;4.07;;
10174;SDS011;18221;38.704;0.152;2023-06-26T13:51:48;6.57;;;4.05;;
10174;SDS011;18221;38.704;0.152;2023-06-26T13:54:16;4.68;;;4.22;;
10174;SDS011;18221;38.704;0.152;2023-06-26T13:56:44;6.32;;;4.05;;
10174;SDS011;18221;38.704;0.152;2023-06-26T13:59:12;5.90;;;4.32;;
10174;SDS011;18221;38.704;0.152;2023-06-26T14:01:40;4.70;;;4.05;;
10174;SDS011;18221;38.704;0.152;2023-06-26T14:04:09;6.65;;;4.53;;
10174;SDS011;18221;38.704;0.152;2023-06-26T14:06:40;6.07;;;4.10;;
10174;SDS011;18221;38.704;0.152;2023-06-26T14:09:10;6.05;;;4.18;;
10174;SDS011;18221;38.704;0.152;2023-06-26T14:11:38;5.40;;;4.30;;
10174;SDS011;18221;38.704;0.152;2023-06-26T14:14:06;5.53;;;3.88;;
10174;SDS011;18221;38.704;0.152;2023-06-26T14:16:34;7.70;;;4.47;;
10174;SDS011;18221;38.704;0.152;2023-06-26T14:19:02;5.75;;;4.10;;
10174;SDS011;18221;38.704;0.152;2023-06-26T14:21:30;5.88;;;4.35;;
10174;SDS011;18221;38.704;0.152;2023-06-26T14:24:00;5.22;;;4.20;;
10174;SDS011;18221;38.704;0.152;2023-06-26T14:26:29;5.63;;;4.38;;
10174;SDS011;18221;38.704;0.152;2023-06-26T14:28:59;4.50;;;3.97;;
10174;SDS011;18221;38.704;0.152;2023-06-26T14:31:27;6.00;;;4.43;;
10174;SDS011;18221;38.704;0.152;2023-06-26T14:33:55;6.80;;;4.10;;
10174;SDS011;18221;38.704;0.152;2023-06-26T14:36:24;5.53;;;4.45;;
10174;SDS011;18221;38.704;0.152;2023-06-26T14:38:53;6.20;;;4.20;;
10174;SDS011;18221;38.704;0.152;2023-06-26T14:41:22;6.13;;;4.30;;
10174;SDS011;18221;38.704;0.152;2023-06-26T14:43:50;5.75;;;4.22;;
10174;SDS011;18221;38.704;0.152;2023-06-26T14:46:20;6.75;;;4.55;;
10174;SDS011;18221;38.704;0.152;2023-06-26T14:48:48;6.80;;;4.22;;
10174;SDS011;18221;38.704;0.152;2023-06-26T14:51:16;5.85;;;3.92;;
10174;SDS011;18221;38.704;0.152;2023-06-26T14:53:44;5.07;;;3.83;;
10174;SDS011;18221;38.704;0.152;2023-06-26T14:56:14;5.82;;;3.90;;
10174;SDS011;18221;38.704;0.152;2023-06-26T14:58:44;6.47;;;4.00;;
10174;SDS011;18221;38.704;0.152;2023-06-26T15:01:12;5.47;;;4.32;;
10174;SDS011;18221;38.704;0.152;2023-06-26T15:03:40;7.35;;;4.55;;